createdAt,value
2022-11-29T00:00:04.767Z,3.22
2022-11-29T00:03:01.090Z,3.53
2022-11-29T00:05:48.923Z,3.55
2022-11-29T00:08:37.603Z,3.60
2022-11-29T00:11:46.862Z,3.55
2022-11-29T00:14:34.458Z,3.67
2022-11-29T00:17:22.096Z,3.90
2022-11-29T00:20:10.899Z,4.03
2022-11-29T00:22:58.497Z,3.20
2022-11-29T00:25:46.121Z,4.30
2022-11-29T00:28:35.204Z,3.22
2022-11-29T00:31:30.447Z,3.15
2022-11-29T00:34:18.216Z,3.20
2022-11-29T00:37:05.863Z,3.60
2022-11-29T00:39:53.478Z,3.35
2022-11-29T00:42:41.021Z,3.40
2022-11-29T00:45:28.699Z,3.42
2022-11-29T00:48:16.366Z,4.43
2022-11-29T00:51:05.758Z,3.47
2022-11-29T00:53:53.355Z,4.15
2022-11-29T00:56:41.068Z,4.07
2022-11-29T00:59:30.349Z,3.65
2022-11-29T01:02:18.059Z,3.83
2022-11-29T01:05:05.968Z,4.00
2022-11-29T01:07:53.705Z,3.90
2022-11-29T01:10:41.699Z,3.92
2022-11-29T01:13:29.390Z,4.10
2022-11-29T01:16:17.482Z,4.28
2022-11-29T01:19:07.311Z,4.00
2022-11-29T01:21:55.030Z,5.00
2022-11-29T01:24:42.813Z,4.40
2022-11-29T01:27:30.789Z,4.13
2022-11-29T01:30:18.406Z,5.00
2022-11-29T01:33:06.057Z,4.90
2022-11-29T01:35:54.830Z,5.57
2022-11-29T01:38:42.538Z,5.53
2022-11-29T01:41:32.616Z,5.13
2022-11-29T01:44:20.158Z,5.82
2022-11-29T01:47:11.314Z,4.93
2022-11-29T01:49:59.942Z,4.95
2022-11-29T01:52:48.293Z,4.55
2022-11-29T01:55:43.219Z,5.38
2022-11-29T01:58:33.243Z,5.10
2022-11-29T02:01:20.960Z,5.10
2022-11-29T02:04:08.852Z,6.13
2022-11-29T02:06:56.385Z,4.82
2022-11-29T02:09:44.093Z,5.03
2022-11-29T02:13:06.237Z,5.18
2022-11-29T02:16:10.222Z,4.25
2022-11-29T02:19:35.734Z,4.43
2022-11-29T02:22:37.427Z,5.38
2022-11-29T02:25:46.526Z,5.22
2022-11-29T02:28:58.937Z,5.00
2022-11-29T02:32:37.963Z,5.90
2022-11-29T02:35:31.299Z,5.68
2022-11-29T02:38:43.382Z,6.30
2022-11-29T02:41:55.371Z,5.40
2022-11-29T02:44:51.932Z,4.05
2022-11-29T02:47:45.519Z,4.75
2022-11-29T02:50:52.211Z,4.80
2022-11-29T02:53:50.046Z,5.00
2022-11-29T02:56:53.957Z,5.35
2022-11-29T03:00:06.642Z,5.38
2022-11-29T03:03:12.546Z,5.38
2022-11-29T03:06:12.122Z,5.72
2022-11-29T03:09:07.935Z,5.47
2022-11-29T03:12:15.769Z,6.30
2022-11-29T03:15:23.780Z,4.72
2022-11-29T03:18:32.933Z,5.25
2022-11-29T03:21:29.501Z,5.40
2022-11-29T03:27:36.383Z,4.68
2022-11-29T03:30:24.142Z,4.10
2022-11-29T03:33:28.211Z,4.80
2022-11-29T03:36:33.630Z,6.43
2022-11-29T03:39:42.683Z,4.53
2022-11-29T03:42:37.603Z,4.40
2022-11-29T03:45:32.805Z,5.32
2022-11-29T03:48:35.564Z,4.07
2022-11-29T03:51:59.348Z,4.85
2022-11-29T03:55:03.266Z,3.75
2022-11-29T03:58:05.840Z,4.72
2022-11-29T04:01:21.165Z,3.88
2022-11-29T04:04:36.758Z,5.72
2022-11-29T04:07:27.170Z,5.72
2022-11-29T04:10:40.103Z,5.03
2022-11-29T04:14:05.209Z,6.40
2022-11-29T04:17:23.976Z,5.30
2022-11-29T04:20:23.384Z,5.60
2022-11-29T04:23:35.486Z,5.43
2022-11-29T04:26:38.005Z,6.60
2022-11-29T04:29:53.259Z,6.47
2022-11-29T04:33:10.241Z,6.25
2022-11-29T04:36:36.133Z,4.00
2022-11-29T04:39:57.085Z,5.80
2022-11-29T04:42:50.358Z,6.50
2022-11-29T04:45:56.132Z,8.55
2022-11-29T04:49:06.078Z,6.70
2022-11-29T04:52:02.892Z,5.93
2022-11-29T04:55:21.645Z,5.25
2022-11-29T04:58:27.012Z,5.80
2022-11-29T05:01:24.026Z,6.82
2022-11-29T05:04:30.012Z,5.65
2022-11-29T05:07:44.081Z,5.15
2022-11-29T05:10:41.914Z,6.38
2022-11-29T05:13:45.552Z,6.85
2022-11-29T05:17:01.039Z,5.63
2022-11-29T05:20:21.039Z,6.78
2022-11-29T05:23:14.733Z,8.38
2022-11-29T05:26:20.229Z,9.13
2022-11-29T05:29:17.111Z,6.90
2022-11-29T05:32:04.760Z,7.93
2022-11-29T05:35:01.255Z,8.20
2022-11-29T05:37:52.732Z,8.10
2022-11-29T05:40:55.221Z,8.10
2022-11-29T05:44:10.003Z,8.43
2022-11-29T05:47:04.737Z,6.10
2022-11-29T05:50:12.672Z,6.88
2022-11-29T05:53:05.928Z,8.85
2022-11-29T05:56:09.193Z,7.40
2022-11-29T05:59:13.694Z,6.97
2022-11-29T06:02:17.775Z,6.63
2022-11-29T06:05:55.556Z,5.53
2022-11-29T06:09:00.546Z,8.38
2022-11-29T06:12:18.149Z,6.13
2022-11-29T06:15:39.048Z,7.25
2022-11-29T06:19:11.926Z,7.18
2022-11-29T06:22:32.096Z,6.80
2022-11-29T06:25:37.727Z,8.45
2022-11-29T06:28:56.306Z,7.25
2022-11-29T06:31:49.049Z,7.75
2022-11-29T06:34:48.953Z,7.72
2022-11-29T06:37:42.561Z,7.20
2022-11-29T06:40:31.094Z,6.75
2022-11-29T06:43:22.704Z,6.13
2022-11-29T06:46:22.655Z,6.00
2022-11-29T06:49:41.704Z,7.38
2022-11-29T06:52:32.979Z,7.22
2022-11-29T06:56:13.509Z,7.25
2022-11-29T06:59:25.408Z,6.75
2022-11-29T07:02:35.558Z,6.65
2022-11-29T07:05:32.356Z,7.57
2022-11-29T07:08:23.777Z,7.97
2022-11-29T07:11:14.448Z,6.35
2022-11-29T07:14:03.135Z,8.90
2022-11-29T07:17:09.263Z,10.90
2022-11-29T07:20:10.852Z,7.27
2022-11-29T07:23:29.855Z,9.45
2022-11-29T07:26:26.536Z,8.75
2022-11-29T07:29:21.234Z,9.55
2022-11-29T07:32:27.517Z,8.32
2022-11-29T07:35:18.031Z,7.53
2022-11-29T07:38:15.097Z,9.35
2022-11-29T07:41:20.814Z,9.32
2022-11-29T07:44:18.247Z,7.85
2022-11-29T07:47:09.027Z,7.85
2022-11-29T07:49:57.320Z,8.73
2022-11-29T07:52:45.353Z,8.52
2022-11-29T07:55:35.221Z,8.60
2022-11-29T07:58:23.681Z,8.05
2022-11-29T08:01:11.799Z,8.18
2022-11-29T08:04:02.276Z,9.88
2022-11-29T08:06:53.393Z,9.07
2022-11-29T08:09:41.393Z,9.60
2022-11-29T08:12:29.695Z,8.88
2022-11-29T08:15:19.830Z,10.23
2022-11-29T08:18:10.721Z,9.38
2022-11-29T08:21:00.021Z,8.88
2022-11-29T08:23:51.649Z,9.48
2022-11-29T08:26:40.149Z,9.05
2022-11-29T08:29:28.108Z,7.38
2022-11-29T08:32:16.451Z,10.98
2022-11-29T08:35:04.800Z,9.30
2022-11-29T08:37:54.474Z,8.75
2022-11-29T08:40:42.422Z,8.40
2022-11-29T08:43:33.448Z,8.73
2022-11-29T08:46:21.337Z,7.53
2022-11-29T08:49:09.546Z,8.18
2022-11-29T08:52:17.328Z,8.18
2022-11-29T08:55:05.577Z,8.80
2022-11-29T08:58:00.532Z,7.53
2022-11-29T09:00:48.764Z,7.60
2022-11-29T09:03:55.481Z,6.40
2022-11-29T09:06:44.566Z,6.15
2022-11-29T09:09:32.525Z,6.38
2022-11-29T09:12:20.429Z,6.47
2022-11-29T09:15:10.482Z,7.47
2022-11-29T09:17:58.593Z,5.43
2022-11-29T09:20:46.767Z,6.60
2022-11-29T09:23:35.775Z,7.07
2022-11-29T09:26:23.988Z,6.90
2022-11-29T09:29:12.244Z,5.40
2022-11-29T09:32:00.265Z,8.07
2022-11-29T09:34:48.462Z,8.73
2022-11-29T09:37:37.337Z,5.78
2022-11-29T09:40:39.079Z,6.13
2022-11-29T09:43:35.888Z,9.70
2022-11-29T09:46:35.711Z,6.35
2022-11-29T09:49:48.017Z,4.95
2022-11-29T09:53:13.533Z,6.47
2022-11-29T09:56:10.516Z,7.68
2022-11-29T09:59:02.644Z,5.13
2022-11-29T10:02:00.449Z,6.85
2022-11-29T10:04:56.314Z,7.05
2022-11-29T10:07:51.452Z,5.68
2022-11-29T10:11:12.313Z,7.70
2022-11-29T10:14:09.542Z,6.18
2022-11-29T10:17:14.182Z,7.57
2022-11-29T10:20:25.787Z,7.90
2022-11-29T10:23:29.934Z,6.97
2022-11-29T10:26:18.449Z,6.35
2022-11-29T10:29:06.610Z,7.22
2022-11-29T10:31:57.042Z,7.90
2022-11-29T10:34:45.876Z,8.05
2022-11-29T10:37:34.962Z,7.65
2022-11-29T10:40:34.058Z,7.82
2022-11-29T10:43:24.501Z,8.48
2022-11-29T10:46:27.972Z,8.55
2022-11-29T10:49:20.039Z,9.10
2022-11-29T10:52:20.219Z,7.15
2022-11-29T10:55:14.936Z,7.47
2022-11-29T10:58:26.247Z,8.55
2022-11-29T11:01:17.097Z,8.98
2022-11-29T11:04:10.191Z,7.90
2022-11-29T11:07:01.870Z,9.18
2022-11-29T11:09:53.717Z,6.95
2022-11-29T11:13:00.203Z,7.63
2022-11-29T11:15:50.535Z,9.20
2022-11-29T11:18:38.660Z,12.75
2022-11-29T11:21:28.609Z,8.80
2022-11-29T11:24:31.076Z,8.00
2022-11-29T11:27:33.487Z,7.85
2022-11-29T11:30:27.658Z,8.75
2022-11-29T11:33:23.094Z,8.15
2022-11-29T11:36:20.744Z,7.97
2022-11-29T11:39:09.592Z,7.10
2022-11-29T11:42:16.044Z,7.30
2022-11-29T11:45:28.152Z,6.00
2022-11-29T11:48:20.646Z,8.93
2022-11-29T11:51:22.033Z,8.40
2022-11-29T11:54:15.537Z,6.57
2022-11-29T11:57:03.902Z,8.93
2022-11-29T11:59:54.199Z,9.05
2022-11-29T12:02:44.649Z,8.45
2022-11-29T12:05:33.110Z,8.25
2022-11-29T12:08:22.628Z,7.32
2022-11-29T12:11:16.044Z,7.45
2022-11-29T12:14:06.540Z,7.20
2022-11-29T12:17:03.431Z,9.77
2022-11-29T12:20:15.485Z,6.05
2022-11-29T12:23:27.524Z,7.80
2022-11-29T12:26:55.534Z,10.77
2022-11-29T12:29:35.170Z,6.60
2022-11-29T12:32:42.196Z,8.13
2022-11-29T12:36:05.185Z,7.75
2022-11-29T12:39:05.628Z,6.57
2022-11-29T12:42:09.712Z,6.68
2022-11-29T12:45:18.766Z,6.88
2022-11-29T12:48:28.510Z,7.80
2022-11-29T12:51:25.919Z,7.07
2022-11-29T12:54:32.751Z,8.23
2022-11-29T12:57:49.463Z,6.80
2022-11-29T13:00:46.753Z,6.57
2022-11-29T13:04:14.481Z,7.70
2022-11-29T13:07:19.182Z,8.43
2022-11-29T13:10:18.341Z,8.63
2022-11-29T13:13:15.734Z,10.00
2022-11-29T13:19:53.308Z,6.90
2022-11-29T13:23:02.234Z,6.82
2022-11-29T13:25:54.320Z,8.30
2022-11-29T13:28:44.524Z,9.63
2022-11-29T13:31:33.526Z,9.40
2022-11-29T13:34:31.554Z,8.23
2022-11-29T13:37:31.797Z,7.38
2022-11-29T13:40:54.184Z,7.53
2022-11-29T13:43:56.981Z,9.35
2022-11-29T13:46:47.934Z,7.32
2022-11-29T13:50:22.699Z,6.32
2022-11-29T13:53:49.319Z,6.38
2022-11-29T13:57:14.491Z,7.20
2022-11-29T14:04:46.379Z,6.93
2022-11-29T14:07:35.112Z,7.90
2022-11-29T14:10:29.230Z,6.15
2022-11-29T14:13:21.222Z,6.43
2022-11-29T14:16:28.513Z,7.45
2022-11-29T14:23:40.938Z,6.40
2022-11-29T14:27:17.855Z,8.25
2022-11-29T14:31:38.673Z,7.90
2022-11-29T14:34:48.930Z,7.05
2022-11-29T14:38:03.667Z,7.35
2022-11-29T14:41:22.972Z,6.45
2022-11-29T14:44:19.385Z,6.85
2022-11-29T14:47:25.444Z,7.05
2022-11-29T14:53:52.894Z,9.52
2022-11-29T14:56:46.165Z,6.80
2022-11-29T14:59:37.847Z,7.90
2022-11-29T15:02:35.861Z,8.40
2022-11-29T15:05:31.863Z,7.78
2022-11-29T15:08:35.458Z,11.02
2022-11-29T15:11:52.746Z,8.27
2022-11-29T15:15:27.864Z,7.97
2022-11-29T15:18:24.726Z,13.13
2022-11-29T15:22:04.589Z,8.90
2022-11-29T15:41:01.712Z,7.18
2022-11-29T15:43:53.413Z,6.82
2022-11-29T15:54:12.173Z,6.32
2022-11-29T15:58:08.346Z,7.97
2022-11-29T16:05:13.442Z,7.40
2022-11-29T16:23:57.308Z,7.25
2022-11-29T16:26:50.648Z,7.90
2022-11-29T16:29:45.467Z,9.02
2022-11-29T16:32:38.189Z,7.32
2022-11-29T16:35:34.566Z,7.65
2022-11-29T16:38:28.608Z,7.00
2022-11-29T16:41:45.785Z,8.20
2022-11-29T16:44:40.105Z,7.38
2022-11-29T16:47:30.503Z,8.55
2022-11-29T16:50:19.949Z,7.93
2022-11-29T16:53:37.649Z,9.32
2022-11-29T16:56:28.695Z,8.93
2022-11-29T16:59:26.488Z,9.02
2022-11-29T17:02:16.148Z,6.78
2022-11-29T17:05:04.500Z,7.50
2022-11-29T17:07:52.834Z,8.80
2022-11-29T17:10:41.237Z,8.85
2022-11-29T17:13:29.178Z,7.93
2022-11-29T17:16:19.516Z,7.70
2022-11-29T17:19:12.022Z,8.55
2022-11-29T17:21:59.840Z,8.20
2022-11-29T17:24:48.537Z,11.30
2022-11-29T17:27:37.017Z,8.98
2022-11-29T17:30:24.694Z,12.90
2022-11-29T17:33:12.305Z,7.95
2022-11-29T17:36:07.571Z,8.25
2022-11-29T17:38:55.209Z,6.88
2022-11-29T17:41:42.944Z,8.75
2022-11-29T17:44:30.611Z,7.28
2022-11-29T17:47:18.262Z,6.93
2022-11-29T17:50:06.521Z,7.45
2022-11-29T17:52:54.097Z,6.90
2022-11-29T17:55:41.747Z,7.43
2022-11-29T17:58:29.652Z,9.10
2022-11-29T18:01:19.446Z,8.48
2022-11-29T18:04:08.385Z,7.10
2022-11-29T18:06:56.122Z,7.68
2022-11-29T18:09:44.985Z,7.85
2022-11-29T18:12:32.768Z,9.20
2022-11-29T18:15:20.571Z,7.63
2022-11-29T18:18:08.202Z,8.48
2022-11-29T18:21:00.263Z,7.72
2022-11-29T18:23:47.899Z,6.68
2022-11-29T18:26:36.670Z,9.70
2022-11-29T18:29:24.263Z,9.38
2022-11-29T18:32:11.849Z,9.30
2022-11-29T18:35:00.034Z,8.10
2022-11-29T18:38:14.155Z,7.63
2022-11-29T18:40:55.295Z,6.00
2022-11-29T18:43:43.331Z,6.40
2022-11-29T18:46:36.585Z,6.15
2022-11-29T18:49:24.196Z,8.85
2022-11-29T18:52:11.796Z,7.78
2022-11-29T18:54:59.413Z,6.13
2022-11-29T18:57:50.389Z,7.28
2022-11-29T19:00:39.094Z,7.30
2022-11-29T19:03:26.812Z,5.63
2022-11-29T19:06:16.699Z,6.90
2022-11-29T19:09:05.521Z,7.93
2022-11-29T19:11:53.265Z,9.30
2022-11-29T19:14:45.089Z,7.93
2022-11-29T19:17:41.649Z,6.40
2022-11-29T19:20:34.379Z,5.93
2022-11-29T19:23:22.253Z,7.13
2022-11-29T19:26:12.485Z,6.47
2022-11-29T19:29:01.138Z,6.07
2022-11-29T19:31:50.393Z,7.60
2022-11-29T19:34:38.422Z,7.47
2022-11-29T19:37:26.114Z,7.28
2022-11-29T19:40:13.863Z,6.38
2022-11-29T19:43:01.475Z,8.40
2022-11-29T19:45:49.178Z,5.57
2022-11-29T19:48:37.261Z,6.72
2022-11-29T19:51:26.946Z,7.47
2022-11-29T19:54:14.705Z,6.25
2022-11-29T19:57:02.581Z,5.22
2022-11-29T19:59:50.256Z,5.93
2022-11-29T20:02:38.011Z,5.55
2022-11-29T20:05:27.257Z,5.28
2022-11-29T20:08:19.844Z,6.57
2022-11-29T20:11:14.650Z,6.50
2022-11-29T20:14:04.166Z,6.45
2022-11-29T20:16:51.740Z,6.15
2022-11-29T20:19:39.351Z,6.28
2022-11-29T20:22:26.948Z,5.90
2022-11-29T20:25:14.516Z,7.68
2022-11-29T20:28:04.158Z,7.43
2022-11-29T20:30:52.628Z,6.82
2022-11-29T20:33:41.861Z,6.30
2022-11-29T20:36:44.674Z,7.30
2022-11-29T20:39:57.579Z,5.22
2022-11-29T20:43:03.286Z,7.25
2022-11-29T20:45:51.029Z,8.88
2022-11-29T20:48:38.841Z,7.30
2022-11-29T20:51:37.205Z,5.72
2022-11-29T20:54:24.789Z,6.15
2022-11-29T20:57:12.340Z,6.53
2022-11-29T21:00:00.097Z,7.30
2022-11-29T21:02:47.947Z,7.00
2022-11-29T21:05:37.871Z,6.88
2022-11-29T21:08:26.553Z,7.30
2022-11-29T21:11:14.526Z,7.32
2022-11-29T21:14:03.959Z,7.50
2022-11-29T21:16:51.817Z,6.75
2022-11-29T21:19:40.090Z,6.82
2022-11-29T21:22:47.707Z,7.57
2022-11-29T21:26:09.016Z,8.40
2022-11-29T21:29:16.422Z,8.27
2022-11-29T21:32:04.561Z,7.43
2022-11-29T21:34:52.624Z,7.25
2022-11-29T21:37:41.016Z,8.43
2022-11-29T21:40:28.690Z,7.07
2022-11-29T21:43:16.945Z,6.55
2022-11-29T21:46:04.549Z,6.10
2022-11-29T21:48:52.930Z,6.65
2022-11-29T21:51:40.602Z,6.47
2022-11-29T21:54:29.608Z,6.05
2022-11-29T21:57:17.225Z,5.78
2022-11-29T22:00:05.953Z,6.57
2022-11-29T22:02:55.856Z,5.95
2022-11-29T22:05:43.512Z,7.13
2022-11-29T22:08:36.088Z,6.45
2022-11-29T22:11:30.991Z,6.65
2022-11-29T22:14:19.254Z,6.13
2022-11-29T22:17:06.892Z,6.07
2022-11-29T22:19:54.483Z,5.75
2022-11-29T22:22:42.038Z,5.53
2022-11-29T22:25:29.566Z,7.82
2022-11-29T22:28:17.132Z,6.55
2022-11-29T22:31:10.383Z,8.07
2022-11-29T22:33:58.291Z,6.32
2022-11-29T22:36:45.924Z,6.70
2022-11-29T22:39:33.588Z,7.45
2022-11-29T22:42:21.181Z,5.88
2022-11-29T22:45:09.227Z,8.43
2022-11-29T22:47:58.167Z,8.55
2022-11-29T22:50:45.769Z,7.85
2022-11-29T22:53:34.153Z,8.05
2022-11-29T22:56:23.721Z,7.38
2022-11-29T22:59:11.617Z,7.65
2022-11-29T23:01:59.260Z,8.25
2022-11-29T23:04:47.085Z,7.07
2022-11-29T23:07:34.885Z,7.95
2022-11-29T23:10:22.534Z,10.45
2022-11-29T23:13:10.091Z,9.18
2022-11-29T23:15:57.799Z,8.07
2022-11-29T23:18:46.257Z,8.95
2022-11-29T23:21:37.079Z,6.53
2022-11-29T23:24:24.694Z,7.32
2022-11-29T23:27:12.279Z,8.98
2022-11-29T23:29:59.897Z,8.13
2022-11-29T23:32:47.517Z,8.02
2022-11-29T23:35:35.054Z,7.03
2022-11-29T23:38:22.582Z,7.80
2022-11-29T23:41:11.696Z,7.50
2022-11-29T23:43:59.856Z,8.10
2022-11-29T23:46:47.456Z,6.60
2022-11-29T23:49:35.783Z,6.03
2022-11-29T23:52:23.355Z,7.10
2022-11-29T23:55:14.428Z,6.70
2022-11-29T23:58:02.222Z,9.65
